createdAt,value
2023-02-23T00:02:03.862Z,66.76
2023-02-23T00:04:31.426Z,66.30
2023-02-23T00:06:59.075Z,67.09
2023-02-23T00:09:28.131Z,66.59
2023-02-23T00:11:57.389Z,66.84
2023-02-23T00:14:27.429Z,66.81
2023-02-23T00:16:56.473Z,66.66
2023-02-23T00:19:25.110Z,66.72
2023-02-23T00:21:53.824Z,66.93
2023-02-23T00:24:23.376Z,66.93
2023-02-23T00:26:51.710Z,66.93
2023-02-23T00:29:21.771Z,67.46
2023-02-23T00:31:50.218Z,67.85
2023-02-23T00:34:23.770Z,68.26
2023-02-23T00:36:55.662Z,69.16
2023-02-23T00:39:26.649Z,68.40
2023-02-23T00:41:55.695Z,68.30
2023-02-23T00:44:23.723Z,68.66
2023-02-23T00:46:52.234Z,68.08
2023-02-23T00:49:23.876Z,67.70
2023-02-23T00:51:52.392Z,68.56
2023-02-23T00:54:20.839Z,69.33
2023-02-23T00:56:48.530Z,69.61
2023-02-23T00:59:16.427Z,68.63
2023-02-23T01:01:44.300Z,68.27
2023-02-23T01:04:12.228Z,68.02
2023-02-23T01:06:40.990Z,68.01
2023-02-23T01:09:09.983Z,68.12
2023-02-23T01:11:41.627Z,68.99
2023-02-23T01:14:10.460Z,68.92
2023-02-23T01:16:39.160Z,68.59
2023-02-23T01:19:10.058Z,68.69
2023-02-23T01:21:38.808Z,68.88
2023-02-23T01:24:07.182Z,68.54
2023-02-23T01:26:38.258Z,67.99
2023-02-23T01:29:11.400Z,68.24
2023-02-23T01:31:40.519Z,68.14
2023-02-23T01:34:12.050Z,67.19
2023-02-23T01:36:41.280Z,67.36
2023-02-23T01:39:12.299Z,67.13
2023-02-23T01:41:44.895Z,67.47
2023-02-23T01:44:15.878Z,67.10
2023-02-23T01:46:45.803Z,67.26
2023-02-23T01:49:20.388Z,66.86
2023-02-23T01:51:50.267Z,66.76
2023-02-23T01:54:42.149Z,66.62
2023-02-23T01:57:12.021Z,66.65
2023-02-23T01:59:49.186Z,66.40
2023-02-23T02:02:18.213Z,67.91
2023-02-23T02:04:46.985Z,68.40
2023-02-23T02:07:25.142Z,68.97
2023-02-23T02:10:12.423Z,67.79
2023-02-23T02:12:44.744Z,67.73
2023-02-23T02:15:18.200Z,67.49
2023-02-23T02:18:10.760Z,67.61
2023-02-23T02:21:12.318Z,66.65
2023-02-23T02:24:02.030Z,66.20
2023-02-23T02:26:48.064Z,65.29
2023-02-23T02:29:42.925Z,64.53
2023-02-23T02:33:01.978Z,64.23
2023-02-23T02:35:50.285Z,63.79
2023-02-23T02:38:43.095Z,63.89
2023-02-23T02:41:30.432Z,63.96
2023-02-23T02:44:20.273Z,63.89
2023-02-23T02:46:49.399Z,64.58
2023-02-23T02:49:35.286Z,64.23
2023-02-23T02:52:12.021Z,66.49
2023-02-23T02:54:57.376Z,67.79
2023-02-23T02:57:26.657Z,67.38
2023-02-23T03:00:13.218Z,67.91
2023-02-23T03:02:59.355Z,67.37
2023-02-23T03:05:49.122Z,68.35
2023-02-23T03:08:58.088Z,67.32
2023-02-23T03:11:50.155Z,67.09
2023-02-23T03:14:40.569Z,67.58
2023-02-23T03:17:58.572Z,67.06
2023-02-23T03:21:02.676Z,66.55
2023-02-23T03:24:21.232Z,67.76
2023-02-23T03:27:20.062Z,68.69
2023-02-23T03:30:19.485Z,67.35
2023-02-23T03:33:14.474Z,67.95
2023-02-23T03:36:13.023Z,68.23
2023-02-23T03:39:13.007Z,67.54
2023-02-23T03:42:00.294Z,68.19
2023-02-23T03:44:58.165Z,68.10
2023-02-23T03:47:46.309Z,68.75
2023-02-23T03:50:49.563Z,68.32
2023-02-23T03:53:37.055Z,68.55
2023-02-23T03:56:23.575Z,67.92
2023-02-23T03:59:11.111Z,68.16
2023-02-23T04:01:57.215Z,68.25
2023-02-23T04:04:43.227Z,67.96
2023-02-23T04:07:29.237Z,67.73
2023-02-23T04:10:15.383Z,68.81
2023-02-23T04:13:34.106Z,69.16
2023-02-23T04:16:29.916Z,68.33
2023-02-23T04:18:57.631Z,68.22
2023-02-23T04:21:25.286Z,68.41
2023-02-23T04:23:52.821Z,67.98
2023-02-23T04:26:20.538Z,68.15
2023-02-23T04:28:48.314Z,67.59
2023-02-23T04:31:18.412Z,68.08
2023-02-23T04:33:46.121Z,67.52
2023-02-23T04:36:13.638Z,67.07
2023-02-23T04:38:41.365Z,67.79
2023-02-23T04:41:09.291Z,67.48
2023-02-23T04:43:41.857Z,67.08
2023-02-23T04:46:09.786Z,66.55
2023-02-23T04:48:37.360Z,66.92
2023-02-23T04:51:05.097Z,67.04
2023-02-23T04:53:32.692Z,66.95
2023-02-23T04:56:00.374Z,67.24
2023-02-23T04:58:28.086Z,67.13
2023-02-23T05:00:55.899Z,66.40
2023-02-23T05:03:23.585Z,66.70
2023-02-23T05:05:52.629Z,66.46
2023-02-23T05:08:20.768Z,65.92
2023-02-23T05:10:48.314Z,66.70
2023-02-23T05:13:17.251Z,66.97
2023-02-23T05:15:45.225Z,65.89
2023-02-23T05:18:12.847Z,66.07
2023-02-23T05:20:44.919Z,65.33
2023-02-23T05:23:13.421Z,66.45
2023-02-23T05:25:41.975Z,65.46
2023-02-23T05:28:11.125Z,65.25
2023-02-23T05:30:38.954Z,64.98
2023-02-23T05:33:06.530Z,65.07
2023-02-23T05:35:34.705Z,65.13
2023-02-23T05:38:02.230Z,64.78
2023-02-23T05:40:30.386Z,65.27
2023-02-23T05:43:00.702Z,63.97
2023-02-23T05:45:28.282Z,64.82
2023-02-23T05:47:56.417Z,63.20
2023-02-23T05:50:23.954Z,63.04
2023-02-23T05:52:53.983Z,62.28
2023-02-23T05:55:21.469Z,62.35
2023-02-23T05:57:50.830Z,61.17
2023-02-23T06:00:18.778Z,61.28
2023-02-23T06:02:53.157Z,61.79
2023-02-23T06:05:20.762Z,61.75
2023-02-23T06:07:48.290Z,61.65
2023-02-23T06:10:15.926Z,61.41
2023-02-23T06:12:43.471Z,61.16
2023-02-23T06:15:11.690Z,61.49
2023-02-23T06:17:39.270Z,61.49
2023-02-23T06:20:07.402Z,61.59
2023-02-23T06:22:37.322Z,60.78
2023-02-23T06:25:06.524Z,60.27
2023-02-23T06:27:34.230Z,59.91
2023-02-23T06:30:01.754Z,60.30
2023-02-23T06:32:29.673Z,60.41
2023-02-23T06:34:57.564Z,59.67
2023-02-23T06:37:25.731Z,60.06
2023-02-23T06:39:53.474Z,59.68
2023-02-23T06:42:21.242Z,59.95
2023-02-23T06:44:49.504Z,60.23
2023-02-23T06:47:17.472Z,60.23
2023-02-23T06:49:45.268Z,59.22
2023-02-23T06:52:13.921Z,61.39
2023-02-23T06:54:42.110Z,59.39
2023-02-23T06:57:10.072Z,58.89
2023-02-23T06:59:37.983Z,59.15
2023-02-23T07:02:07.470Z,59.38
2023-02-23T07:04:36.413Z,58.41
2023-02-23T07:07:05.501Z,58.27
2023-02-23T07:09:34.256Z,57.26
2023-02-23T07:12:05.568Z,56.53
2023-02-23T07:14:35.901Z,57.14
2023-02-23T07:17:07.016Z,56.00
2023-02-23T07:19:40.217Z,56.94
2023-02-23T07:22:08.240Z,56.95
2023-02-23T07:24:36.301Z,56.07
2023-02-23T07:27:04.921Z,56.34
2023-02-23T07:29:33.385Z,57.02
2023-02-23T07:32:01.910Z,54.29
2023-02-23T07:34:29.925Z,54.42
2023-02-23T07:36:58.171Z,53.85
2023-02-23T07:39:26.445Z,52.98
2023-02-23T07:41:54.860Z,55.56
2023-02-23T07:44:29.778Z,54.46
2023-02-23T07:46:58.568Z,54.22
2023-02-23T07:49:26.651Z,55.43
2023-02-23T07:51:55.381Z,54.88
2023-02-23T07:54:23.973Z,55.21
2023-02-23T07:56:52.757Z,53.92
2023-02-23T07:59:21.901Z,52.97
2023-02-23T08:01:49.837Z,52.63
2023-02-23T08:04:17.925Z,52.34
2023-02-23T08:06:46.011Z,51.67
2023-02-23T08:09:15.189Z,52.33
2023-02-23T08:11:44.262Z,52.13
2023-02-23T08:14:15.118Z,51.53
2023-02-23T08:16:43.722Z,51.84
2023-02-23T08:19:19.435Z,50.83
2023-02-23T08:21:47.528Z,51.85
2023-02-23T08:24:17.712Z,51.95
2023-02-23T08:26:47.043Z,51.24
2023-02-23T08:29:18.547Z,51.46
2023-02-23T08:31:47.249Z,52.49
2023-02-23T08:34:19.797Z,50.32
2023-02-23T08:36:48.449Z,49.51
2023-02-23T08:39:21.308Z,51.01
2023-02-23T08:41:49.656Z,50.09
2023-02-23T08:44:17.467Z,50.99
2023-02-23T08:47:42.142Z,49.18
2023-02-23T08:50:30.420Z,50.05
2023-02-23T08:52:58.452Z,50.81
2023-02-23T08:55:26.794Z,50.77
2023-02-23T08:57:59.355Z,51.69
2023-02-23T09:00:27.587Z,50.05
2023-02-23T09:02:57.584Z,50.86
2023-02-23T09:05:25.634Z,51.78
2023-02-23T09:07:54.474Z,50.84
2023-02-23T09:10:25.076Z,52.07
2023-02-23T09:12:58.795Z,49.97
2023-02-23T09:15:26.776Z,50.04
2023-02-23T09:17:54.740Z,49.74
2023-02-23T09:20:27.146Z,49.48
2023-02-23T09:22:55.908Z,49.13
2023-02-23T09:25:29.384Z,50.73
2023-02-23T09:27:57.801Z,50.26
2023-02-23T09:30:26.426Z,49.85
2023-02-23T09:32:57.510Z,49.35
2023-02-23T09:35:25.753Z,49.27
2023-02-23T09:37:55.103Z,49.08
2023-02-23T09:40:32.110Z,47.98
2023-02-23T09:43:36.710Z,49.89
2023-02-23T09:46:45.550Z,49.17
2023-02-23T09:49:18.943Z,47.68
2023-02-23T09:51:49.379Z,47.11
2023-02-23T09:54:17.488Z,47.97
2023-02-23T09:56:48.959Z,48.51
2023-02-23T09:59:20.742Z,49.30
2023-02-23T10:01:48.627Z,48.26
2023-02-23T10:04:29.195Z,48.48
2023-02-23T10:07:00.113Z,48.16
2023-02-23T10:09:49.763Z,49.04
2023-02-23T10:12:26.770Z,46.77
2023-02-23T10:15:07.068Z,47.67
2023-02-23T10:17:51.963Z,48.40
2023-02-23T10:20:41.753Z,49.78
2023-02-23T10:23:14.004Z,48.85
2023-02-23T10:25:46.809Z,48.30
2023-02-23T10:28:16.686Z,49.49
2023-02-23T10:30:44.555Z,48.61
2023-02-23T10:33:20.903Z,47.68
2023-02-23T10:36:03.826Z,48.99
2023-02-23T10:38:40.532Z,49.28
2023-02-23T10:41:09.391Z,48.96
2023-02-23T10:43:39.249Z,48.27
2023-02-23T10:46:07.120Z,48.00
2023-02-23T10:48:40.103Z,48.77
2023-02-23T10:51:19.573Z,47.58
2023-02-23T10:53:51.061Z,47.36
2023-02-23T10:56:20.069Z,48.17
2023-02-23T10:58:52.801Z,46.69
2023-02-23T11:01:33.065Z,46.87
2023-02-23T11:04:14.216Z,47.77
2023-02-23T11:06:43.836Z,47.82
2023-02-23T11:09:47.564Z,48.59
2023-02-23T11:12:25.584Z,48.48
2023-02-23T11:14:55.231Z,48.49
2023-02-23T11:17:27.818Z,46.53
2023-02-23T11:20:19.376Z,47.71
2023-02-23T11:22:48.168Z,46.94
2023-02-23T11:25:20.323Z,46.41
2023-02-23T11:27:52.481Z,47.78
2023-02-23T11:30:22.014Z,47.53
2023-02-23T11:32:55.005Z,46.99
2023-02-23T11:35:22.714Z,45.96
2023-02-23T11:37:50.828Z,47.12
2023-02-23T11:40:21.624Z,46.23
2023-02-23T11:43:10.034Z,46.78
2023-02-23T11:45:45.741Z,47.89
2023-02-23T11:48:33.051Z,47.19
2023-02-23T11:51:00.739Z,47.22
2023-02-23T11:53:46.582Z,46.82
2023-02-23T11:56:14.779Z,46.55
2023-02-23T11:59:21.343Z,47.77
2023-02-23T12:01:53.691Z,47.27
2023-02-23T12:04:49.673Z,48.01
2023-02-23T12:07:23.529Z,46.49
2023-02-23T12:09:59.574Z,44.00
2023-02-23T12:12:28.371Z,44.32
2023-02-23T12:15:00.554Z,44.39
2023-02-23T12:17:31.985Z,43.51
2023-02-23T12:20:25.525Z,44.58
2023-02-23T12:23:13.990Z,45.82
2023-02-23T12:26:01.980Z,45.91
2023-02-23T12:29:00.668Z,45.30
2023-02-23T12:31:48.132Z,44.72
2023-02-23T12:34:24.283Z,43.98
2023-02-23T12:37:07.716Z,44.08
2023-02-23T12:39:36.940Z,43.64
2023-02-23T12:42:44.839Z,43.71
2023-02-23T12:45:34.178Z,44.14
2023-02-23T12:48:20.813Z,42.73
2023-02-23T12:50:53.345Z,43.36
2023-02-23T12:53:29.365Z,42.31
2023-02-23T12:56:04.620Z,43.07
2023-02-23T12:58:38.665Z,42.74
2023-02-23T13:01:13.043Z,42.83
2023-02-23T13:03:51.635Z,42.02
2023-02-23T13:06:53.192Z,42.94
2023-02-23T13:09:23.629Z,42.74
2023-02-23T13:12:19.566Z,41.71
2023-02-23T13:14:58.849Z,41.02
2023-02-23T13:17:26.773Z,41.07
2023-02-23T13:19:58.984Z,41.37
2023-02-23T13:22:30.825Z,41.13
2023-02-23T13:25:00.027Z,40.84
2023-02-23T13:27:36.021Z,41.10
2023-02-23T13:30:04.675Z,39.66
2023-02-23T13:32:33.750Z,40.70
2023-02-23T13:35:03.016Z,42.26
2023-02-23T13:37:35.242Z,42.64
2023-02-23T13:40:22.970Z,41.37
2023-02-23T13:43:18.021Z,42.33
2023-02-23T13:46:01.904Z,40.80
2023-02-23T13:48:56.066Z,41.23
2023-02-23T13:51:58.278Z,41.19
2023-02-23T13:54:32.443Z,40.05
2023-02-23T13:57:05.788Z,40.59
2023-02-23T13:59:39.208Z,41.09
2023-02-23T14:02:33.193Z,40.85
2023-02-23T14:05:30.388Z,40.37
2023-02-23T14:08:05.843Z,41.19
2023-02-23T14:10:40.806Z,42.25
2023-02-23T14:13:25.508Z,43.61
2023-02-23T14:16:11.172Z,44.32
2023-02-23T14:18:56.429Z,44.26
2023-02-23T14:21:29.232Z,44.03
2023-02-23T14:24:13.559Z,43.95
2023-02-23T14:26:46.228Z,44.72
2023-02-23T14:29:18.062Z,44.43
2023-02-23T14:31:59.424Z,45.57
2023-02-23T14:34:51.352Z,45.84
2023-02-23T14:37:37.925Z,47.31
2023-02-23T14:40:37.722Z,48.06
2023-02-23T14:43:32.085Z,49.26
2023-02-23T14:46:01.328Z,49.64
2023-02-23T14:48:29.221Z,49.89
2023-02-23T14:51:17.141Z,49.48
2023-02-23T14:53:44.826Z,48.82
2023-02-23T14:56:20.596Z,48.46
2023-02-23T14:58:52.900Z,48.19
2023-02-23T15:01:37.625Z,48.87
2023-02-23T15:04:12.840Z,48.64
2023-02-23T15:06:42.548Z,49.88
2023-02-23T15:09:33.827Z,49.49
2023-02-23T15:12:03.419Z,49.88
2023-02-23T15:14:31.268Z,50.13
2023-02-23T15:16:59.199Z,50.47
2023-02-23T15:19:28.795Z,50.33
2023-02-23T15:21:57.391Z,50.83
2023-02-23T15:24:31.744Z,51.26
2023-02-23T15:26:59.966Z,50.98
2023-02-23T15:29:32.656Z,51.15
2023-02-23T15:32:21.070Z,51.91
2023-02-23T15:34:49.068Z,52.71
2023-02-23T15:37:21.877Z,52.81
2023-02-23T15:39:54.836Z,52.23
2023-02-23T15:42:29.080Z,52.30
2023-02-23T15:45:01.014Z,52.28
2023-02-23T15:47:35.790Z,52.61
2023-02-23T15:50:34.919Z,52.70
2023-02-23T15:53:29.368Z,52.78
2023-02-23T15:56:03.062Z,53.13
2023-02-23T15:58:41.749Z,53.99
2023-02-23T16:01:15.534Z,53.39
2023-02-23T16:03:47.170Z,53.51
2023-02-23T16:06:24.390Z,53.80
2023-02-23T16:09:06.053Z,53.69
2023-02-23T16:11:37.816Z,54.27
2023-02-23T16:14:06.932Z,53.97
2023-02-23T16:16:36.599Z,53.98
2023-02-23T16:19:05.306Z,54.62
2023-02-23T16:21:33.217Z,56.16
2023-02-23T16:24:06.892Z,55.91
2023-02-23T16:26:52.138Z,55.39
2023-02-23T16:29:41.723Z,55.13
2023-02-23T16:32:20.015Z,55.51
2023-02-23T16:35:00.642Z,55.63
2023-02-23T16:37:28.767Z,55.49
2023-02-23T16:39:57.309Z,56.47
2023-02-23T16:42:34.842Z,58.77
2023-02-23T16:45:02.765Z,57.85
2023-02-23T16:47:36.573Z,58.47
2023-02-23T16:50:20.728Z,57.93
2023-02-23T16:52:52.507Z,57.41
2023-02-23T16:55:27.423Z,57.61
2023-02-23T16:57:59.639Z,58.06
2023-02-23T17:00:32.189Z,58.25
2023-02-23T17:03:06.387Z,58.46
2023-02-23T17:05:35.064Z,58.64
2023-02-23T17:08:05.057Z,58.98
2023-02-23T17:10:33.865Z,58.59
2023-02-23T17:13:05.150Z,59.36
2023-02-23T17:15:38.246Z,59.43
2023-02-23T17:18:06.035Z,59.96
2023-02-23T17:20:33.702Z,60.00
2023-02-23T17:23:02.058Z,60.32
2023-02-23T17:25:30.108Z,60.57
2023-02-23T17:27:58.004Z,60.51
2023-02-23T17:30:25.623Z,60.82
2023-02-23T17:32:54.573Z,60.82
2023-02-23T17:35:22.595Z,61.22
2023-02-23T17:37:50.908Z,61.42
2023-02-23T17:40:31.244Z,61.28
2023-02-23T17:42:59.793Z,61.46
2023-02-23T17:45:28.091Z,61.91
2023-02-23T17:47:55.875Z,62.08
2023-02-23T17:50:24.289Z,62.19
2023-02-23T17:52:51.818Z,62.34
2023-02-23T17:55:19.754Z,62.58
2023-02-23T17:57:47.724Z,62.73
2023-02-23T18:00:16.649Z,62.96
2023-02-23T18:02:45.538Z,63.19
2023-02-23T18:05:13.628Z,63.30
2023-02-23T18:07:45.065Z,63.69
2023-02-23T18:10:14.741Z,63.89
2023-02-23T18:12:48.303Z,64.41
2023-02-23T18:15:18.612Z,64.99
2023-02-23T18:17:46.282Z,64.88
2023-02-23T18:20:15.359Z,64.87
2023-02-23T18:22:44.463Z,64.85
2023-02-23T18:25:39.582Z,64.89
2023-02-23T18:28:10.092Z,65.13
2023-02-23T18:30:38.599Z,65.51
2023-02-23T18:33:06.976Z,65.53
2023-02-23T18:35:37.553Z,65.65
2023-02-23T18:38:05.937Z,65.83
2023-02-23T18:40:33.772Z,65.71
2023-02-23T18:43:01.449Z,66.04
2023-02-23T18:45:29.437Z,66.12
2023-02-23T18:47:57.062Z,66.36
2023-02-23T18:50:26.504Z,66.63
2023-02-23T18:52:55.470Z,66.26
2023-02-23T18:55:23.421Z,66.75
2023-02-23T18:57:55.146Z,66.99
2023-02-23T19:00:23.153Z,66.87
2023-02-23T19:02:50.765Z,66.90
2023-02-23T19:05:20.854Z,67.32
2023-02-23T19:07:49.786Z,67.51
2023-02-23T19:10:17.895Z,67.67
2023-02-23T19:12:45.635Z,67.95
2023-02-23T19:15:13.492Z,67.55
2023-02-23T19:17:41.189Z,67.68
2023-02-23T19:20:13.433Z,67.70
2023-02-23T19:22:41.573Z,67.91
2023-02-23T19:25:11.829Z,67.94
2023-02-23T19:27:39.921Z,68.16
2023-02-23T19:30:10.214Z,68.24
2023-02-23T19:32:39.874Z,68.41
2023-02-23T19:35:10.454Z,68.45
2023-02-23T19:37:40.162Z,68.29
2023-02-23T19:40:08.522Z,68.81
2023-02-23T19:42:37.084Z,68.77
2023-02-23T19:45:05.094Z,68.89
2023-02-23T19:47:32.676Z,69.10
2023-02-23T19:50:00.246Z,68.88
2023-02-23T19:52:30.886Z,69.10
2023-02-23T19:55:03.873Z,69.27
2023-02-23T19:57:31.838Z,69.15
2023-02-23T19:59:59.356Z,69.26
2023-02-23T20:02:26.955Z,69.25
2023-02-23T20:04:54.647Z,69.45
2023-02-23T20:07:22.256Z,69.25
2023-02-23T20:09:49.717Z,69.35
2023-02-23T20:12:20.217Z,69.47
2023-02-23T20:14:49.697Z,69.38
2023-02-23T20:17:17.187Z,69.97
2023-02-23T20:19:46.919Z,70.13
2023-02-23T20:22:14.443Z,70.33
2023-02-23T20:24:42.025Z,70.30
2023-02-23T20:27:09.646Z,70.54
2023-02-23T20:29:37.626Z,70.64
2023-02-23T20:32:05.711Z,70.35
2023-02-23T20:34:35.762Z,70.86
2023-02-23T20:37:04.499Z,71.01
2023-02-23T20:39:32.180Z,70.53
2023-02-23T20:42:00.383Z,70.39
2023-02-23T20:44:29.461Z,70.38
2023-02-23T20:46:57.887Z,69.96
2023-02-23T20:49:27.511Z,69.98
2023-02-23T20:51:55.005Z,70.24
2023-02-23T20:54:22.632Z,70.23
2023-02-23T20:57:07.769Z,70.35
2023-02-23T20:59:38.863Z,70.16
2023-02-23T21:02:06.500Z,69.88
2023-02-23T21:04:38.637Z,70.10
2023-02-23T21:07:06.914Z,70.07
2023-02-23T21:09:34.629Z,70.02
2023-02-23T21:12:03.760Z,69.61
2023-02-23T21:14:39.226Z,69.59
2023-02-23T21:17:06.809Z,69.87
2023-02-23T21:19:34.462Z,70.00
2023-02-23T21:22:02.954Z,69.70
2023-02-23T21:24:33.931Z,69.99
2023-02-23T21:27:05.436Z,69.98
2023-02-23T21:29:33.200Z,70.16
2023-02-23T21:32:01.285Z,70.34
2023-02-23T21:34:28.962Z,70.78
2023-02-23T21:37:09.748Z,70.80
2023-02-23T21:39:38.225Z,70.59
2023-02-23T21:42:08.590Z,70.57
2023-02-23T21:44:36.159Z,70.60
2023-02-23T21:47:07.341Z,70.47
2023-02-23T21:49:35.281Z,70.53
2023-02-23T21:52:03.650Z,71.24
2023-02-23T21:54:31.196Z,71.23
2023-02-23T21:56:58.791Z,70.84
2023-02-23T21:59:26.638Z,71.04
2023-02-23T22:01:54.444Z,71.23
2023-02-23T22:04:22.021Z,71.40
2023-02-23T22:06:49.662Z,71.27
2023-02-23T22:09:17.205Z,71.67
2023-02-23T22:11:46.311Z,72.01
2023-02-23T22:14:32.740Z,71.55
2023-02-23T22:17:00.562Z,71.75
2023-02-23T22:19:28.267Z,71.21
2023-02-23T22:21:55.781Z,71.44
2023-02-23T22:24:23.310Z,70.94
2023-02-23T22:26:54.399Z,70.83
2023-02-23T22:29:23.089Z,70.89
2023-02-23T22:31:51.166Z,70.84
2023-02-23T22:34:18.953Z,70.81
2023-02-23T22:36:46.595Z,70.48
2023-02-23T22:39:16.433Z,70.73
2023-02-23T22:41:47.624Z,70.83
2023-02-23T22:44:20.456Z,70.56
2023-02-23T22:46:48.450Z,70.55
2023-02-23T22:49:16.202Z,70.52
2023-02-23T22:51:44.408Z,70.79
2023-02-23T22:54:13.471Z,70.61
2023-02-23T22:56:42.457Z,70.60
2023-02-23T22:59:11.132Z,70.86
2023-02-23T23:01:39.000Z,71.00
2023-02-23T23:04:10.648Z,70.84
2023-02-23T23:06:40.233Z,70.89
2023-02-23T23:09:08.401Z,71.09
2023-02-23T23:11:36.508Z,70.91
2023-02-23T23:14:07.072Z,70.73
2023-02-23T23:16:35.320Z,71.17
2023-02-23T23:19:04.790Z,70.94
2023-02-23T23:21:33.599Z,71.29
2023-02-23T23:24:07.271Z,71.33
2023-02-23T23:26:36.315Z,71.24
2023-02-23T23:29:07.566Z,71.21
2023-02-23T23:31:36.900Z,71.35
2023-02-23T23:34:06.615Z,71.46
2023-02-23T23:36:37.445Z,71.42
2023-02-23T23:39:06.291Z,71.36
2023-02-23T23:41:35.565Z,72.33
2023-02-23T23:44:06.182Z,72.29
2023-02-23T23:46:35.612Z,72.06
2023-02-23T23:49:08.196Z,71.96
2023-02-23T23:51:44.829Z,71.85
2023-02-23T23:54:21.681Z,71.79
2023-02-23T23:56:49.828Z,71.84
2023-02-23T23:59:20.617Z,72.07
